sensor_id;sensor_type;location;lat;lon;timestamp;pressure;altitude;pressure_sealevel;temperature;humidity
76819;BME280;65772;51.096;17.006;2023-07-31T00:01:15;99898.60;;;19.66;66.86
76819;BME280;65772;51.096;17.006;2023-07-31T00:03:46;99903.66;;;19.62;66.73
76819;BME280;65772;51.096;17.006;2023-07-31T00:06:17;99908.17;;;19.61;66.69
76819;BME280;65772;51.096;17.006;2023-07-31T00:08:47;99909.77;;;19.59;66.59
76819;BME280;65772;51.096;17.006;2023-07-31T00:11:18;99903.04;;;19.59;66.47
76819;BME280;65772;51.096;17.006;2023-07-31T00:13:48;99904.91;;;19.60;66.55
76819;BME280;65772;51.096;17.006;2023-07-31T00:16:19;99907.82;;;19.62;66.68
76819;BME280;65772;51.096;17.006;2023-07-31T00:18:49;99907.63;;;19.63;66.72
76819;BME280;65772;51.096;17.006;2023-07-31T00:21:20;99911.76;;;19.66;66.74
76819;BME280;65772;51.096;17.006;2023-07-31T00:23:50;99907.77;;;19.67;66.62
76819;BME280;65772;51.096;17.006;2023-07-31T00:26:21;99910.68;;;19.69;66.62
76819;BME280;65772;51.096;17.006;2023-07-31T00:28:51;99907.40;;;19.68;66.44
76819;BME280;65772;51.096;17.006;2023-07-31T00:31:22;99910.37;;;19.66;66.16
76819;BME280;65772;51.096;17.006;2023-07-31T00:33:52;99909.36;;;19.63;66.00
76819;BME280;65772;51.096;17.006;2023-07-31T00:36:23;99910.94;;;19.62;65.99
76819;BME280;65772;51.096;17.006;2023-07-31T00:38:53;99910.24;;;19.62;65.86
76819;BME280;65772;51.096;17.006;2023-07-31T00:41:24;99910.58;;;19.63;65.96
76819;BME280;65772;51.096;17.006;2023-07-31T00:43:54;99911.42;;;19.65;65.90
76819;BME280;65772;51.096;17.006;2023-07-31T00:46:25;99909.50;;;19.66;65.77
76819;BME280;65772;51.096;17.006;2023-07-31T00:48:55;99912.95;;;19.68;65.59
76819;BME280;65772;51.096;17.006;2023-07-31T00:51:26;99913.30;;;19.68;65.50
76819;BME280;65772;51.096;17.006;2023-07-31T00:53:59;99915.21;;;19.66;65.15
76819;BME280;65772;51.096;17.006;2023-07-31T00:56:30;99914.71;;;19.65;65.13
76819;BME280;65772;51.096;17.006;2023-07-31T00:59:02;99912.84;;;19.63;64.95
76819;BME280;65772;51.096;17.006;2023-07-31T01:01:34;99913.05;;;19.60;64.64
76819;BME280;65772;51.096;17.006;2023-07-31T01:04:05;99913.10;;;19.57;64.67
76819;BME280;65772;51.096;17.006;2023-07-31T01:06:39;99911.23;;;19.54;64.76
76819;BME280;65772;51.096;17.006;2023-07-31T01:09:22;99912.81;;;19.51;64.66
76819;BME280;65772;51.096;17.006;2023-07-31T01:12:01;99913.71;;;19.50;64.49
76819;BME280;65772;51.096;17.006;2023-07-31T01:14:32;99908.70;;;19.50;64.84
76819;BME280;65772;51.096;17.006;2023-07-31T01:17:03;99913.00;;;19.50;64.99
76819;BME280;65772;51.096;17.006;2023-07-31T01:19:34;99913.35;;;19.51;64.83
76819;BME280;65772;51.096;17.006;2023-07-31T01:22:21;99912.30;;;19.51;64.76
76819;BME280;65772;51.096;17.006;2023-07-31T01:25:05;99918.19;;;19.51;64.90
76819;BME280;65772;51.096;17.006;2023-07-31T01:27:44;99912.64;;;19.52;64.78
76819;BME280;65772;51.096;17.006;2023-07-31T01:30:24;99911.99;;;19.49;64.52
76819;BME280;65772;51.096;17.006;2023-07-31T01:32:56;99914.09;;;19.48;64.41
76819;BME280;65772;51.096;17.006;2023-07-31T01:35:28;99915.98;;;19.47;64.49
76819;BME280;65772;51.096;17.006;2023-07-31T01:37:58;99911.67;;;19.45;64.53
76819;BME280;65772;51.096;17.006;2023-07-31T01:40:29;99909.44;;;19.45;64.45
76819;BME280;65772;51.096;17.006;2023-07-31T01:42:59;99909.06;;;19.47;64.27
76819;BME280;65772;51.096;17.006;2023-07-31T01:45:30;99912.55;;;19.48;64.15
76819;BME280;65772;51.096;17.006;2023-07-31T01:48:01;99916.34;;;19.49;64.15
76819;BME280;65772;51.096;17.006;2023-07-31T01:50:32;99908.34;;;19.50;64.22
76819;BME280;65772;51.096;17.006;2023-07-31T01:53:02;99904.90;;;19.49;63.97
76819;BME280;65772;51.096;17.006;2023-07-31T01:55:33;99903.04;;;19.43;63.70
76819;BME280;65772;51.096;17.006;2023-07-31T01:58:03;99899.87;;;19.35;63.61
76819;BME280;65772;51.096;17.006;2023-07-31T02:00:34;99907.74;;;19.29;63.91
76819;BME280;65772;51.096;17.006;2023-07-31T02:03:04;99907.75;;;19.28;64.24
76819;BME280;65772;51.096;17.006;2023-07-31T02:05:35;99913.65;;;19.27;64.32
76819;BME280;65772;51.096;17.006;2023-07-31T02:08:05;99910.89;;;19.27;64.53
76819;BME280;65772;51.096;17.006;2023-07-31T02:10:36;99914.29;;;19.29;64.33
76819;BME280;65772;51.096;17.006;2023-07-31T02:13:07;99913.77;;;19.31;64.15
76819;BME280;65772;51.096;17.006;2023-07-31T02:15:37;99917.23;;;19.31;64.35
76819;BME280;65772;51.096;17.006;2023-07-31T02:18:08;99917.38;;;19.32;64.26
76819;BME280;65772;51.096;17.006;2023-07-31T02:20:38;99917.55;;;19.33;64.21
76819;BME280;65772;51.096;17.006;2023-07-31T02:23:09;99914.77;;;19.34;64.14
76819;BME280;65772;51.096;17.006;2023-07-31T02:25:40;99913.37;;;19.35;64.20
76819;BME280;65772;51.096;17.006;2023-07-31T02:28:10;99912.52;;;19.35;64.38
76819;BME280;65772;51.096;17.006;2023-07-31T02:30:43;99908.02;;;19.33;64.24
76819;BME280;65772;51.096;17.006;2023-07-31T02:33:14;99909.95;;;19.31;64.15
76819;BME280;65772;51.096;17.006;2023-07-31T02:35:45;99906.88;;;19.28;63.98
76819;BME280;65772;51.096;17.006;2023-07-31T02:38:15;99907.79;;;19.25;64.13
76819;BME280;65772;51.096;17.006;2023-07-31T02:40:46;99902.09;;;19.24;64.15
76819;BME280;65772;51.096;17.006;2023-07-31T02:43:18;99902.26;;;19.25;63.84
76819;BME280;65772;51.096;17.006;2023-07-31T02:45:52;99899.66;;;19.25;63.94
76819;BME280;65772;51.096;17.006;2023-07-31T02:48:23;99906.41;;;19.25;63.61
76819;BME280;65772;51.096;17.006;2023-07-31T02:50:54;99903.50;;;19.22;63.48
76819;BME280;65772;51.096;17.006;2023-07-31T02:53:23;99903.16;;;19.21;63.69
76819;BME280;65772;51.096;17.006;2023-07-31T02:55:54;99904.39;;;19.19;63.74
76819;BME280;65772;51.096;17.006;2023-07-31T02:58:24;99906.30;;;19.19;63.55
76819;BME280;65772;51.096;17.006;2023-07-31T03:00:55;99907.20;;;19.18;63.64
76819;BME280;65772;51.096;17.006;2023-07-31T03:03:28;99909.11;;;19.17;63.67
76819;BME280;65772;51.096;17.006;2023-07-31T03:05:59;99908.62;;;19.15;63.53
76819;BME280;65772;51.096;17.006;2023-07-31T03:08:29;99903.80;;;19.14;63.45
76819;BME280;65772;51.096;17.006;2023-07-31T03:11:00;99909.34;;;19.13;63.50
76819;BME280;65772;51.096;17.006;2023-07-31T03:13:30;99909.70;;;19.11;63.53
76819;BME280;65772;51.096;17.006;2023-07-31T03:16:01;99909.53;;;19.10;63.36
76819;BME280;65772;51.096;17.006;2023-07-31T03:18:32;99909.89;;;19.09;63.23
76819;BME280;65772;51.096;17.006;2023-07-31T03:21:02;99906.45;;;19.08;63.21
76819;BME280;65772;51.096;17.006;2023-07-31T03:23:33;99905.42;;;19.07;63.18
76819;BME280;65772;51.096;17.006;2023-07-31T03:26:05;99910.92;;;19.10;63.21
76819;BME280;65772;51.096;17.006;2023-07-31T03:28:36;99910.57;;;19.11;63.19
76819;BME280;65772;51.096;17.006;2023-07-31T03:31:07;99911.77;;;19.11;63.11
76819;BME280;65772;51.096;17.006;2023-07-31T03:33:38;99912.98;;;19.11;63.06
76819;BME280;65772;51.096;17.006;2023-07-31T03:36:08;99913.49;;;19.12;63.01
76819;BME280;65772;51.096;17.006;2023-07-31T03:38:39;99913.84;;;19.12;62.87
76819;BME280;65772;51.096;17.006;2023-07-31T03:41:09;99919.20;;;19.12;62.82
76819;BME280;65772;51.096;17.006;2023-07-31T03:43:40;99916.45;;;19.11;62.78
76819;BME280;65772;51.096;17.006;2023-07-31T03:46:11;99920.09;;;19.10;62.68
76819;BME280;65772;51.096;17.006;2023-07-31T03:48:41;99918.73;;;19.08;62.79
76819;BME280;65772;51.096;17.006;2023-07-31T03:51:12;99915.45;;;19.07;62.74
76819;BME280;65772;51.096;17.006;2023-07-31T03:53:42;99916.18;;;19.06;62.77
76819;BME280;65772;51.096;17.006;2023-07-31T03:56:13;99915.16;;;19.04;62.90
76819;BME280;65772;51.096;17.006;2023-07-31T03:58:43;99913.09;;;19.02;62.67
76819;BME280;65772;51.096;17.006;2023-07-31T04:01:14;99911.91;;;18.99;62.37
76819;BME280;65772;51.096;17.006;2023-07-31T04:03:45;99904.54;;;18.95;62.36
76819;BME280;65772;51.096;17.006;2023-07-31T04:06:15;99903.70;;;18.93;62.35
76819;BME280;65772;51.096;17.006;2023-07-31T04:08:47;99905.27;;;18.91;62.37
76819;BME280;65772;51.096;17.006;2023-07-31T04:11:17;99905.63;;;18.90;62.41
76819;BME280;65772;51.096;17.006;2023-07-31T04:13:48;99910.81;;;18.90;62.65
76819;BME280;65772;51.096;17.006;2023-07-31T04:16:19;99908.02;;;18.92;62.64
76819;BME280;65772;51.096;17.006;2023-07-31T04:18:49;99913.20;;;18.94;62.87
76819;BME280;65772;51.096;17.006;2023-07-31T04:21:20;99911.13;;;18.94;62.89
76819;BME280;65772;51.096;17.006;2023-07-31T04:23:50;99912.48;;;18.96;62.86
76819;BME280;65772;51.096;17.006;2023-07-31T04:26:25;99912.14;;;18.96;62.55
76819;BME280;65772;51.096;17.006;2023-07-31T04:28:55;99909.54;;;18.96;62.57
76819;BME280;65772;51.096;17.006;2023-07-31T04:31:26;99907.98;;;18.96;62.52
76819;BME280;65772;51.096;17.006;2023-07-31T04:33:57;99910.77;;;18.95;62.31
76819;BME280;65772;51.096;17.006;2023-07-31T04:36:27;99911.30;;;18.93;62.28
76819;BME280;65772;51.096;17.006;2023-07-31T04:38:58;99913.22;;;18.92;62.29
76819;BME280;65772;51.096;17.006;2023-07-31T04:41:28;99912.70;;;18.92;62.28
76819;BME280;65772;51.096;17.006;2023-07-31T04:43:58;99912.88;;;18.90;62.23
76819;BME280;65772;51.096;17.006;2023-07-31T04:46:29;99912.71;;;18.90;62.18
76819;BME280;65772;51.096;17.006;2023-07-31T04:49:00;99910.98;;;18.91;62.27
76819;BME280;65772;51.096;17.006;2023-07-31T04:51:44;99909.76;;;18.92;62.42
76819;BME280;65772;51.096;17.006;2023-07-31T04:54:15;99911.64;;;18.94;62.41
76819;BME280;65772;51.096;17.006;2023-07-31T04:56:45;99908.53;;;18.94;62.31
76819;BME280;65772;51.096;17.006;2023-07-31T04:59:16;99907.31;;;18.95;62.30
76819;BME280;65772;51.096;17.006;2023-07-31T05:01:47;99905.36;;;18.97;62.46
76819;BME280;65772;51.096;17.006;2023-07-31T05:04:17;99902.73;;;19.02;62.45
76819;BME280;65772;51.096;17.006;2023-07-31T05:06:48;99909.60;;;19.06;62.36
76819;BME280;65772;51.096;17.006;2023-07-31T05:09:24;99909.37;;;19.10;62.21
76819;BME280;65772;51.096;17.006;2023-07-31T05:11:54;99908.11;;;19.13;62.13
76819;BME280;65772;51.096;17.006;2023-07-31T05:14:27;99911.88;;;19.17;62.06
76819;BME280;65772;51.096;17.006;2023-07-31T05:16:57;99910.09;;;19.20;61.83
76819;BME280;65772;51.096;17.006;2023-07-31T05:19:28;99908.00;;;19.22;61.63
76819;BME280;65772;51.096;17.006;2023-07-31T05:21:58;99907.46;;;19.24;61.85
76819;BME280;65772;51.096;17.006;2023-07-31T05:24:29;99906.23;;;19.25;61.89
76819;BME280;65772;51.096;17.006;2023-07-31T05:27:00;99908.14;;;19.26;61.80
76819;BME280;65772;51.096;17.006;2023-07-31T05:29:30;99906.05;;;19.27;61.93
76819;BME280;65772;51.096;17.006;2023-07-31T05:32:01;99906.73;;;19.27;61.66
76819;BME280;65772;51.096;17.006;2023-07-31T05:34:32;99910.02;;;19.28;61.59
76819;BME280;65772;51.096;17.006;2023-07-31T05:37:02;99915.19;;;19.28;61.58
76819;BME280;65772;51.096;17.006;2023-07-31T05:39:33;99912.40;;;19.29;61.67
76819;BME280;65772;51.096;17.006;2023-07-31T05:42:05;99914.64;;;19.30;61.54
76819;BME280;65772;51.096;17.006;2023-07-31T05:44:34;99911.86;;;19.30;61.15
76819;BME280;65772;51.096;17.006;2023-07-31T05:47:05;99909.45;;;19.29;61.26
76819;BME280;65772;51.096;17.006;2023-07-31T05:49:36;99911.17;;;19.30;61.17
76819;BME280;65772;51.096;17.006;2023-07-31T05:52:07;99908.05;;;19.31;61.24
76819;BME280;65772;51.096;17.006;2023-07-31T05:54:36;99908.38;;;19.33;61.20
76819;BME280;65772;51.096;17.006;2023-07-31T05:57:07;99903.36;;;19.33;61.05
76819;BME280;65772;51.096;17.006;2023-07-31T05:59:38;99906.29;;;19.34;60.96
76819;BME280;65772;51.096;17.006;2023-07-31T06:02:08;99904.88;;;19.36;60.67
76819;BME280;65772;51.096;17.006;2023-07-31T06:04:39;99901.75;;;19.37;60.39
76819;BME280;65772;51.096;17.006;2023-07-31T06:07:10;99901.21;;;19.38;60.41
76819;BME280;65772;51.096;17.006;2023-07-31T06:09:41;99902.94;;;19.38;60.06
76819;BME280;65772;51.096;17.006;2023-07-31T06:12:11;99903.92;;;19.41;60.41
76819;BME280;65772;51.096;17.006;2023-07-31T06:14:42;99903.75;;;19.42;60.41
76819;BME280;65772;51.096;17.006;2023-07-31T06:17:12;99902.86;;;19.44;60.32
76819;BME280;65772;51.096;17.006;2023-07-31T06:19:42;99902.48;;;19.46;60.50
76819;BME280;65772;51.096;17.006;2023-07-31T06:22:13;99901.45;;;19.47;60.37
76819;BME280;65772;51.096;17.006;2023-07-31T06:24:44;99899.70;;;19.49;60.58
76819;BME280;65772;51.096;17.006;2023-07-31T06:27:15;99900.70;;;19.51;60.36
76819;BME280;65772;51.096;17.006;2023-07-31T06:29:45;99902.06;;;19.53;60.44
76819;BME280;65772;51.096;17.006;2023-07-31T06:32:17;99902.71;;;19.57;60.25
76819;BME280;65772;51.096;17.006;2023-07-31T06:34:47;99899.88;;;19.61;60.43
76819;BME280;65772;51.096;17.006;2023-07-31T06:37:18;99901.22;;;19.64;60.56
76819;BME280;65772;51.096;17.006;2023-07-31T06:39:48;99904.63;;;19.68;60.55
76819;BME280;65772;51.096;17.006;2023-07-31T06:42:19;99909.26;;;19.71;60.71
76819;BME280;65772;51.096;17.006;2023-07-31T06:44:50;99910.75;;;19.75;60.83
76819;BME280;65772;51.096;17.006;2023-07-31T06:47:20;99908.29;;;19.78;60.73
76819;BME280;65772;51.096;17.006;2023-07-31T06:49:51;99907.40;;;19.80;60.77
76819;BME280;65772;51.096;17.006;2023-07-31T06:52:22;99908.55;;;19.82;60.99
76819;BME280;65772;51.096;17.006;2023-07-31T06:55:04;99905.75;;;19.84;61.16
76819;BME280;65772;51.096;17.006;2023-07-31T06:57:47;99906.94;;;19.87;61.47
76819;BME280;65772;51.096;17.006;2023-07-31T07:00:18;99903.98;;;19.88;61.59
76819;BME280;65772;51.096;17.006;2023-07-31T07:02:50;99898.95;;;19.89;61.46
76819;BME280;65772;51.096;17.006;2023-07-31T07:05:20;99901.02;;;19.90;61.59
76819;BME280;65772;51.096;17.006;2023-07-31T07:07:51;99897.34;;;19.91;61.85
76819;BME280;65772;51.096;17.006;2023-07-31T07:10:22;99895.54;;;19.95;61.79
76819;BME280;65772;51.096;17.006;2023-07-31T07:12:53;99896.01;;;19.98;61.68
76819;BME280;65772;51.096;17.006;2023-07-31T07:15:24;99893.55;;;20.00;61.60
76819;BME280;65772;51.096;17.006;2023-07-31T07:17:55;99892.98;;;20.03;61.72
76819;BME280;65772;51.096;17.006;2023-07-31T07:20:26;99888.42;;;20.06;61.56
76819;BME280;65772;51.096;17.006;2023-07-31T07:22:56;99888.39;;;20.09;61.66
76819;BME280;65772;51.096;17.006;2023-07-31T07:25:27;99884.39;;;20.10;61.45
76819;BME280;65772;51.096;17.006;2023-07-31T07:27:57;99891.12;;;20.12;61.31
76819;BME280;65772;51.096;17.006;2023-07-31T07:30:28;99889.70;;;20.13;61.26
76819;BME280;65772;51.096;17.006;2023-07-31T07:32:58;99886.55;;;20.14;61.21
76819;BME280;65772;51.096;17.006;2023-07-31T07:35:29;99877.70;;;20.14;61.05
76819;BME280;65772;51.096;17.006;2023-07-31T07:37:59;99872.52;;;20.14;60.70
76819;BME280;65772;51.096;17.006;2023-07-31T07:40:31;99869.55;;;20.15;60.56
76819;BME280;65772;51.096;17.006;2023-07-31T07:43:01;99873.03;;;20.14;60.25
76819;BME280;65772;51.096;17.006;2023-07-31T07:45:32;99872.17;;;20.14;60.06
76819;BME280;65772;51.096;17.006;2023-07-31T07:48:02;99873.39;;;20.13;59.84
76819;BME280;65772;51.096;17.006;2023-07-31T07:50:33;99866.46;;;20.13;59.81
76819;BME280;65772;51.096;17.006;2023-07-31T07:53:03;99867.48;;;20.14;60.08
76819;BME280;65772;51.096;17.006;2023-07-31T07:55:34;99867.30;;;20.15;60.20
76819;BME280;65772;51.096;17.006;2023-07-31T07:58:05;99873.36;;;20.16;60.18
76819;BME280;65772;51.096;17.006;2023-07-31T08:00:36;99874.04;;;20.17;60.02
76819;BME280;65772;51.096;17.006;2023-07-31T08:03:07;99868.65;;;20.17;59.94
76819;BME280;65772;51.096;17.006;2023-07-31T08:05:39;99864.83;;;20.18;59.98
76819;BME280;65772;51.096;17.006;2023-07-31T08:08:13;99863.09;;;20.19;60.02
76819;BME280;65772;51.096;17.006;2023-07-31T08:10:44;99861.85;;;20.20;60.11
76819;BME280;65772;51.096;17.006;2023-07-31T08:13:15;99857.50;;;20.22;59.97
76819;BME280;65772;51.096;17.006;2023-07-31T08:15:45;99856.41;;;20.23;59.86
76819;BME280;65772;51.096;17.006;2023-07-31T08:18:16;99860.01;;;20.25;59.84
76819;BME280;65772;51.096;17.006;2023-07-31T08:20:47;99863.09;;;20.28;59.76
76819;BME280;65772;51.096;17.006;2023-07-31T08:23:18;99860.10;;;20.30;59.75
76819;BME280;65772;51.096;17.006;2023-07-31T08:25:48;99864.75;;;20.32;59.56
76819;BME280;65772;51.096;17.006;2023-07-31T08:28:20;99861.77;;;20.35;59.55
76819;BME280;65772;51.096;17.006;2023-07-31T08:30:50;99863.98;;;20.37;59.15
76819;BME280;65772;51.096;17.006;2023-07-31T08:33:21;99866.89;;;20.40;58.75
76819;BME280;65772;51.096;17.006;2023-07-31T08:35:52;99868.94;;;20.42;58.30
76819;BME280;65772;51.096;17.006;2023-07-31T08:38:22;99866.12;;;20.44;58.37
76819;BME280;65772;51.096;17.006;2023-07-31T08:40:54;99872.30;;;20.47;58.62
76819;BME280;65772;51.096;17.006;2023-07-31T08:43:28;99868.80;;;20.49;58.63
76819;BME280;65772;51.096;17.006;2023-07-31T08:45:59;99871.89;;;20.51;58.81
76819;BME280;65772;51.096;17.006;2023-07-31T08:48:30;99868.22;;;20.52;58.47
76819;BME280;65772;51.096;17.006;2023-07-31T08:51:00;99869.10;;;20.52;57.72
76819;BME280;65772;51.096;17.006;2023-07-31T08:53:30;99867.75;;;20.50;57.22
76819;BME280;65772;51.096;17.006;2023-07-31T08:56:01;99866.71;;;20.49;57.09
76819;BME280;65772;51.096;17.006;2023-07-31T08:58:33;99864.64;;;20.49;57.04
76819;BME280;65772;51.096;17.006;2023-07-31T09:01:06;99864.48;;;20.48;57.38
76819;BME280;65772;51.096;17.006;2023-07-31T09:03:37;99870.91;;;20.47;57.33
76819;BME280;65772;51.096;17.006;2023-07-31T09:06:10;99873.86;;;20.46;57.46
76819;BME280;65772;51.096;17.006;2023-07-31T09:08:43;99871.45;;;20.46;57.41
76819;BME280;65772;51.096;17.006;2023-07-31T09:11:13;99872.48;;;20.47;57.47
76819;BME280;65772;51.096;17.006;2023-07-31T09:13:46;99865.73;;;20.45;57.00
76819;BME280;65772;51.096;17.006;2023-07-31T09:16:18;99868.16;;;20.45;57.06
76819;BME280;65772;51.096;17.006;2023-07-31T09:18:56;99864.34;;;20.45;56.73
76819;BME280;65772;51.096;17.006;2023-07-31T09:21:27;99870.06;;;20.45;56.79
76819;BME280;65772;51.096;17.006;2023-07-31T09:23:58;99874.41;;;20.45;56.29
76819;BME280;65772;51.096;17.006;2023-07-31T09:26:33;99877.03;;;20.44;56.05
76819;BME280;65772;51.096;17.006;2023-07-31T09:29:06;99876.71;;;20.44;56.22
76819;BME280;65772;51.096;17.006;2023-07-31T09:31:48;99881.91;;;20.44;56.45
76819;BME280;65772;51.096;17.006;2023-07-31T09:34:19;99881.75;;;20.44;56.41
76819;BME280;65772;51.096;17.006;2023-07-31T09:36:51;99882.27;;;20.44;56.42
76819;BME280;65772;51.096;17.006;2023-07-31T09:39:22;99885.73;;;20.43;56.50
76819;BME280;65772;51.096;17.006;2023-07-31T09:41:56;99887.29;;;20.44;56.65
76819;BME280;65772;51.096;17.006;2023-07-31T09:44:40;99889.17;;;20.44;56.61
76819;BME280;65772;51.096;17.006;2023-07-31T09:47:23;99886.56;;;20.45;56.34
76819;BME280;65772;51.096;17.006;2023-07-31T09:49:54;99887.08;;;20.45;55.94
76819;BME280;65772;51.096;17.006;2023-07-31T09:52:27;99886.42;;;20.44;55.91
76819;BME280;65772;51.096;17.006;2023-07-31T09:54:57;99879.15;;;20.44;56.07
76819;BME280;65772;51.096;17.006;2023-07-31T09:57:29;99881.73;;;20.44;56.12
76819;BME280;65772;51.096;17.006;2023-07-31T10:00:01;99880.83;;;20.45;56.15
76819;BME280;65772;51.096;17.006;2023-07-31T10:02:40;99878.21;;;20.46;56.09
76819;BME280;65772;51.096;17.006;2023-07-31T10:05:10;99882.36;;;20.47;56.41
76819;BME280;65772;51.096;17.006;2023-07-31T10:07:45;99877.00;;;20.45;56.21
76819;BME280;65772;51.096;17.006;2023-07-31T10:10:21;99871.44;;;20.46;55.98
76819;BME280;65772;51.096;17.006;2023-07-31T10:12:53;99867.45;;;20.46;56.10
76819;BME280;65772;51.096;17.006;2023-07-31T10:15:24;99862.76;;;20.47;56.09
76819;BME280;65772;51.096;17.006;2023-07-31T10:17:56;99859.81;;;20.47;56.13
76819;BME280;65772;51.096;17.006;2023-07-31T10:20:29;99859.45;;;20.48;56.21
76819;BME280;65772;51.096;17.006;2023-07-31T10:23:00;99861.69;;;20.49;56.43
76819;BME280;65772;51.096;17.006;2023-07-31T10:25:31;99860.64;;;20.50;56.35
76819;BME280;65772;51.096;17.006;2023-07-31T10:28:02;99866.19;;;20.50;56.54
76819;BME280;65772;51.096;17.006;2023-07-31T10:30:35;99867.55;;;20.51;56.42
76819;BME280;65772;51.096;17.006;2023-07-31T10:33:08;99864.77;;;20.52;56.33
76819;BME280;65772;51.096;17.006;2023-07-31T10:35:39;99863.70;;;20.53;56.41
76819;BME280;65772;51.096;17.006;2023-07-31T10:38:13;99865.42;;;20.54;56.49
76819;BME280;65772;51.096;17.006;2023-07-31T10:40:43;99863.68;;;20.55;56.47
76819;BME280;65772;51.096;17.006;2023-07-31T10:43:24;99865.73;;;20.56;56.39
76819;BME280;65772;51.096;17.006;2023-07-31T10:45:56;99858.81;;;20.55;56.70
76819;BME280;65772;51.096;17.006;2023-07-31T10:48:34;99856.50;;;20.57;56.60
76819;BME280;65772;51.096;17.006;2023-07-31T10:51:10;99860.67;;;20.57;56.43
76819;BME280;65772;51.096;17.006;2023-07-31T10:53:41;99859.11;;;20.57;56.23
76819;BME280;65772;51.096;17.006;2023-07-31T10:56:12;99854.43;;;20.56;56.03
76819;BME280;65772;51.096;17.006;2023-07-31T10:59:01;99847.83;;;20.57;56.12
76819;BME280;65772;51.096;17.006;2023-07-31T11:01:52;99846.09;;;20.57;56.34
76819;BME280;65772;51.096;17.006;2023-07-31T11:04:27;99841.22;;;20.58;56.25
76819;BME280;65772;51.096;17.006;2023-07-31T11:07:01;99839.47;;;20.59;56.57
76819;BME280;65772;51.096;17.006;2023-07-31T11:09:35;99837.70;;;20.61;56.81
76819;BME280;65772;51.096;17.006;2023-07-31T11:12:07;99835.06;;;20.63;56.67
76819;BME280;65772;51.096;17.006;2023-07-31T11:14:39;99833.13;;;20.65;56.58
76819;BME280;65772;51.096;17.006;2023-07-31T11:17:09;99831.14;;;20.67;56.67
76819;BME280;65772;51.096;17.006;2023-07-31T11:19:40;99827.61;;;20.71;56.34
76819;BME280;65772;51.096;17.006;2023-07-31T11:22:11;99821.50;;;20.73;55.80
76819;BME280;65772;51.096;17.006;2023-07-31T11:24:43;99819.23;;;20.74;55.72
76819;BME280;65772;51.096;17.006;2023-07-31T11:27:12;99816.05;;;20.76;55.78
76819;BME280;65772;51.096;17.006;2023-07-31T11:29:42;99820.51;;;20.78;55.86
76819;BME280;65772;51.096;17.006;2023-07-31T11:32:18;99815.96;;;20.80;55.63
76819;BME280;65772;51.096;17.006;2023-07-31T11:34:55;99808.83;;;20.82;55.61
76819;BME280;65772;51.096;17.006;2023-07-31T11:37:40;99807.39;;;20.84;55.51
76819;BME280;65772;51.096;17.006;2023-07-31T11:40:10;99804.58;;;20.86;55.27
76819;BME280;65772;51.096;17.006;2023-07-31T11:42:41;99800.06;;;20.86;55.06
76819;BME280;65772;51.096;17.006;2023-07-31T11:45:12;99793.27;;;20.87;55.13
76819;BME280;65772;51.096;17.006;2023-07-31T11:47:42;99789.77;;;20.88;54.92
76819;BME280;65772;51.096;17.006;2023-07-31T11:50:14;99787.14;;;20.90;55.02
76819;BME280;65772;51.096;17.006;2023-07-31T11:52:46;99784.67;;;20.92;55.00
76819;BME280;65772;51.096;17.006;2023-07-31T11:55:19;99779.79;;;20.93;54.98
76819;BME280;65772;51.096;17.006;2023-07-31T11:57:50;99780.77;;;20.95;54.86
76819;BME280;65772;51.096;17.006;2023-07-31T12:00:22;99779.96;;;21.00;54.77
76819;BME280;65772;51.096;17.006;2023-07-31T12:02:53;99771.36;;;21.05;54.82
76819;BME280;65772;51.096;17.006;2023-07-31T12:05:24;99765.48;;;21.11;54.53
76819;BME280;65772;51.096;17.006;2023-07-31T12:07:56;99758.43;;;21.16;54.55
76819;BME280;65772;51.096;17.006;2023-07-31T12:10:29;99764.11;;;21.19;54.66
76819;BME280;65772;51.096;17.006;2023-07-31T12:13:05;99756.57;;;21.22;54.57
76819;BME280;65772;51.096;17.006;2023-07-31T12:15:38;99757.92;;;21.24;54.38
76819;BME280;65772;51.096;17.006;2023-07-31T12:18:11;99749.71;;;21.27;54.45
76819;BME280;65772;51.096;17.006;2023-07-31T12:20:44;99742.73;;;21.29;54.30
76819;BME280;65772;51.096;17.006;2023-07-31T12:23:16;99745.27;;;21.30;54.21
76819;BME280;65772;51.096;17.006;2023-07-31T12:25:47;99744.37;;;21.31;54.00
76819;BME280;65772;51.096;17.006;2023-07-31T12:28:23;99736.88;;;21.32;53.99
76819;BME280;65772;51.096;17.006;2023-07-31T12:30:58;99728.83;;;21.35;53.96
76819;BME280;65772;51.096;17.006;2023-07-31T12:33:34;99724.57;;;21.39;54.05
76819;BME280;65772;51.096;17.006;2023-07-31T12:36:07;99723.59;;;21.43;54.16
76819;BME280;65772;51.096;17.006;2023-07-31T12:38:38;99717.94;;;21.47;54.05
76819;BME280;65772;51.096;17.006;2023-07-31T12:41:09;99713.83;;;21.51;53.99
76819;BME280;65772;51.096;17.006;2023-07-31T12:43:42;99714.97;;;21.54;53.85
76819;BME280;65772;51.096;17.006;2023-07-31T12:46:13;99711.05;;;21.59;53.69
76819;BME280;65772;51.096;17.006;2023-07-31T12:48:44;99706.16;;;21.60;53.70
76819;BME280;65772;51.096;17.006;2023-07-31T12:51:14;99704.02;;;21.62;53.81
76819;BME280;65772;51.096;17.006;2023-07-31T12:53:45;99704.16;;;21.62;53.76
76819;BME280;65772;51.096;17.006;2023-07-31T12:56:15;99697.02;;;21.63;53.40
76819;BME280;65772;51.096;17.006;2023-07-31T12:58:46;99693.40;;;21.62;53.26
76819;BME280;65772;51.096;17.006;2023-07-31T13:01:17;99688.38;;;21.62;53.15
76819;BME280;65772;51.096;17.006;2023-07-31T13:03:48;99681.08;;;21.62;53.14
76819;BME280;65772;51.096;17.006;2023-07-31T13:06:18;99680.36;;;21.63;53.24
76819;BME280;65772;51.096;17.006;2023-07-31T13:08:49;99681.56;;;21.63;53.30
76819;BME280;65772;51.096;17.006;2023-07-31T13:11:20;99676.14;;;21.65;53.34
76819;BME280;65772;51.096;17.006;2023-07-31T13:13:50;99672.44;;;21.66;53.35